sensor_id;sensor_type;location;lat;lon;timestamp;pressure;altitude;pressure_sealevel;temperature;humidity
32081;BME280;18593;51.426;7.030;2023-09-07T00:01:38;100978.66;;;20.62;63.81
32081;BME280;18593;51.426;7.030;2023-09-07T00:04:05;100975.41;;;20.60;63.29
32081;BME280;18593;51.426;7.030;2023-09-07T00:06:32;100971.31;;;20.57;63.61
32081;BME280;18593;51.426;7.030;2023-09-07T00:09:01;100971.59;;;20.55;63.48
32081;BME280;18593;51.426;7.030;2023-09-07T00:11:29;100967.22;;;20.54;63.40
32081;BME280;18593;51.426;7.030;2023-09-07T00:13:57;100969.41;;;20.52;63.14
32081;BME280;18593;51.426;7.030;2023-09-07T00:16:25;100964.25;;;20.51;63.16
32081;BME280;18593;51.426;7.030;2023-09-07T00:18:53;100968.28;;;20.48;63.59
32081;BME280;18593;51.426;7.030;2023-09-07T00:21:20;100969.38;;;20.47;63.73
32081;BME280;18593;51.426;7.030;2023-09-07T00:23:48;100967.16;;;20.44;63.38
32081;BME280;18593;51.426;7.030;2023-09-07T00:26:15;100967.72;;;20.41;63.54
32081;BME280;18593;51.426;7.030;2023-09-07T00:28:42;100967.94;;;20.40;63.48
32081;BME280;18593;51.426;7.030;2023-09-07T00:31:09;100968.22;;;20.38;63.29
32081;BME280;18593;51.426;7.030;2023-09-07T00:33:37;100966.59;;;20.37;63.54
32081;BME280;18593;51.426;7.030;2023-09-07T00:36:05;100964.97;;;20.36;63.43
32081;BME280;18593;51.426;7.030;2023-09-07T00:38:33;100974.19;;;20.35;63.30
32081;BME280;18593;51.426;7.030;2023-09-07T00:41:00;100972.53;;;20.34;63.58
32081;BME280;18593;51.426;7.030;2023-09-07T00:43:28;100972.00;;;20.32;63.23
32081;BME280;18593;51.426;7.030;2023-09-07T00:45:55;100966.28;;;20.28;63.60
32081;BME280;18593;51.426;7.030;2023-09-07T00:48:23;100968.19;;;20.28;63.51
32081;BME280;18593;51.426;7.030;2023-09-07T00:50:50;100961.41;;;20.25;63.41
32081;BME280;18593;51.426;7.030;2023-09-07T00:53:20;100967.34;;;20.22;63.44
32081;BME280;18593;51.426;7.030;2023-09-07T00:55:48;100963.25;;;20.20;63.54
32081;BME280;18593;51.426;7.030;2023-09-07T00:58:15;100963.53;;;20.18;63.02
32081;BME280;18593;51.426;7.030;2023-09-07T01:00:43;100955.69;;;20.17;63.29
32081;BME280;18593;51.426;7.030;2023-09-07T01:03:11;100961.34;;;20.15;63.04
32081;BME280;18593;51.426;7.030;2023-09-07T01:05:45;100953.22;;;20.15;63.47
32081;BME280;18593;51.426;7.030;2023-09-07T01:08:23;100952.16;;;20.16;63.05
32081;BME280;18593;51.426;7.030;2023-09-07T01:10:50;100953.22;;;20.15;63.40
32081;BME280;18593;51.426;7.030;2023-09-07T01:13:18;100952.66;;;20.13;63.05
32081;BME280;18593;51.426;7.030;2023-09-07T01:15:46;100954.84;;;20.11;63.42
32081;BME280;18593;51.426;7.030;2023-09-07T01:18:14;100947.22;;;20.08;63.07
32081;BME280;18593;51.426;7.030;2023-09-07T01:20:44;100944.78;;;20.06;63.29
32081;BME280;18593;51.426;7.030;2023-09-07T01:23:14;100947.75;;;20.05;63.38
32081;BME280;18593;51.426;7.030;2023-09-07T01:25:42;100943.09;;;20.00;63.73
32081;BME280;18593;51.426;7.030;2023-09-07T01:28:10;100939.06;;;19.98;63.24
32081;BME280;18593;51.426;7.030;2023-09-07T01:30:39;100942.53;;;19.93;63.88
32081;BME280;18593;51.426;7.030;2023-09-07T01:33:07;100942.81;;;19.92;63.26
32081;BME280;18593;51.426;7.030;2023-09-07T01:35:37;100940.34;;;19.90;63.29
32081;BME280;18593;51.426;7.030;2023-09-07T01:38:05;100941.69;;;19.88;63.27
32081;BME280;18593;51.426;7.030;2023-09-07T01:40:33;100939.50;;;19.85;63.16
32081;BME280;18593;51.426;7.030;2023-09-07T01:43:01;100939.78;;;19.83;63.52
32081;BME280;18593;51.426;7.030;2023-09-07T01:45:29;100936.75;;;19.79;63.36
32081;BME280;18593;51.426;7.030;2023-09-07T01:47:58;100937.84;;;19.78;63.47
32081;BME280;18593;51.426;7.030;2023-09-07T01:50:25;100931.31;;;19.74;63.63
32081;BME280;18593;51.426;7.030;2023-09-07T01:52:53;100934.28;;;19.73;63.77
32081;BME280;18593;51.426;7.030;2023-09-07T01:55:20;100928.31;;;19.71;63.67
32081;BME280;18593;51.426;7.030;2023-09-07T01:57:48;100934.81;;;19.70;63.67
32081;BME280;18593;51.426;7.030;2023-09-07T02:00:16;100936.97;;;19.68;63.51
32081;BME280;18593;51.426;7.030;2023-09-07T02:02:43;100942.63;;;19.66;63.48
32081;BME280;18593;51.426;7.030;2023-09-07T02:05:10;100939.63;;;19.63;63.28
32081;BME280;18593;51.426;7.030;2023-09-07T02:07:38;100933.41;;;19.62;63.15
32081;BME280;18593;51.426;7.030;2023-09-07T02:10:06;100931.19;;;19.59;63.15
32081;BME280;18593;51.426;7.030;2023-09-07T02:12:34;100934.66;;;19.54;63.64
32081;BME280;18593;51.426;7.030;2023-09-07T02:15:04;100922.47;;;19.52;63.70
32081;BME280;18593;51.426;7.030;2023-09-07T02:17:32;100928.94;;;19.51;63.68
32081;BME280;18593;51.426;7.030;2023-09-07T02:19:59;100924.88;;;19.48;63.62
32081;BME280;18593;51.426;7.030;2023-09-07T02:22:26;100921.63;;;19.46;63.52
32081;BME280;18593;51.426;7.030;2023-09-07T02:24:54;100919.72;;;19.47;63.32
32081;BME280;18593;51.426;7.030;2023-09-07T02:27:21;100926.47;;;19.44;63.54
32081;BME280;18593;51.426;7.030;2023-09-07T02:29:48;100924.84;;;19.43;63.17
32081;BME280;18593;51.426;7.030;2023-09-07T02:32:17;100922.38;;;19.42;63.29
32081;BME280;18593;51.426;7.030;2023-09-07T02:34:44;100918.88;;;19.41;63.17
32081;BME280;18593;51.426;7.030;2023-09-07T02:37:11;100924.53;;;19.40;63.05
32081;BME280;18593;51.426;7.030;2023-09-07T02:39:40;100925.06;;;19.37;63.09
32081;BME280;18593;51.426;7.030;2023-09-07T02:42:07;100923.69;;;19.34;63.26
32081;BME280;18593;51.426;7.030;2023-09-07T02:44:35;100922.31;;;19.32;63.35
32081;BME280;18593;51.426;7.030;2023-09-07T02:47:03;100924.47;;;19.29;63.18
32081;BME280;18593;51.426;7.030;2023-09-07T02:49:33;100919.88;;;19.30;62.69
32081;BME280;18593;51.426;7.030;2023-09-07T02:52:00;100922.03;;;19.28;63.01
32081;BME280;18593;51.426;7.030;2023-09-07T02:54:27;100920.94;;;19.29;62.68
32081;BME280;18593;51.426;7.030;2023-09-07T02:56:55;100921.47;;;19.26;63.21
32081;BME280;18593;51.426;7.030;2023-09-07T02:59:22;100922.81;;;19.23;62.86
32081;BME280;18593;51.426;7.030;2023-09-07T03:01:49;100922.00;;;19.23;62.89
32081;BME280;18593;51.426;7.030;2023-09-07T03:04:16;100920.34;;;19.22;63.11
32081;BME280;18593;51.426;7.030;2023-09-07T03:06:45;100917.91;;;19.20;63.14
32081;BME280;18593;51.426;7.030;2023-09-07T03:09:12;100918.97;;;19.19;63.18
32081;BME280;18593;51.426;7.030;2023-09-07T03:11:40;100915.47;;;19.19;62.77
32081;BME280;18593;51.426;7.030;2023-09-07T03:14:08;100916.50;;;19.18;62.98
32081;BME280;18593;51.426;7.030;2023-09-07T03:16:35;100910.56;;;19.16;62.81
32081;BME280;18593;51.426;7.030;2023-09-07T03:19:04;100913.53;;;19.14;62.88
32081;BME280;18593;51.426;7.030;2023-09-07T03:21:32;100916.47;;;19.13;62.71
32081;BME280;18593;51.426;7.030;2023-09-07T03:24:01;100916.72;;;19.11;63.26
32081;BME280;18593;51.426;7.030;2023-09-07T03:26:29;100907.25;;;19.09;63.28
32081;BME280;18593;51.426;7.030;2023-09-07T03:28:56;100911.28;;;19.06;63.11
32081;BME280;18593;51.426;7.030;2023-09-07T03:31:23;100911.53;;;19.04;63.14
32081;BME280;18593;51.426;7.030;2023-09-07T03:33:51;100905.56;;;19.02;63.32
32081;BME280;18593;51.426;7.030;2023-09-07T03:36:18;100913.66;;;19.02;62.96
32081;BME280;18593;51.426;7.030;2023-09-07T03:38:46;100910.41;;;19.00;63.39
32081;BME280;18593;51.426;7.030;2023-09-07T03:41:16;100905.81;;;19.01;63.26
32081;BME280;18593;51.426;7.030;2023-09-07T03:43:43;100914.19;;;18.99;62.95
32081;BME280;18593;51.426;7.030;2023-09-07T03:46:11;100910.91;;;18.97;63.39
32081;BME280;18593;51.426;7.030;2023-09-07T03:48:38;100917.41;;;18.96;63.66
32081;BME280;18593;51.426;7.030;2023-09-07T03:51:06;100917.69;;;18.95;63.58
32081;BME280;18593;51.426;7.030;2023-09-07T03:53:34;100919.81;;;18.93;63.24
32081;BME280;18593;51.426;7.030;2023-09-07T03:56:02;100917.34;;;18.91;63.51
32081;BME280;18593;51.426;7.030;2023-09-07T03:58:32;100917.63;;;18.90;63.49
32081;BME280;18593;51.426;7.030;2023-09-07T04:01:00;100923.53;;;18.87;63.38
32081;BME280;18593;51.426;7.030;2023-09-07T04:03:28;100926.50;;;18.85;63.41
32081;BME280;18593;51.426;7.030;2023-09-07T04:05:56;100917.81;;;18.83;63.28
32081;BME280;18593;51.426;7.030;2023-09-07T04:08:23;100920.78;;;18.82;63.15
32081;BME280;18593;51.426;7.030;2023-09-07T04:10:50;100920.22;;;18.80;63.09
32081;BME280;18593;51.426;7.030;2023-09-07T04:13:18;100925.88;;;18.78;63.20
32081;BME280;18593;51.426;7.030;2023-09-07T04:15:46;100920.72;;;18.76;63.02
32081;BME280;18593;51.426;7.030;2023-09-07T04:18:15;100922.06;;;18.74;63.20
32081;BME280;18593;51.426;7.030;2023-09-07T04:20:44;100923.38;;;18.71;63.28
32081;BME280;18593;51.426;7.030;2023-09-07T04:23:12;100924.69;;;18.69;63.37
32081;BME280;18593;51.426;7.030;2023-09-07T04:25:39;100929.78;;;18.65;63.47
32081;BME280;18593;51.426;7.030;2023-09-07T04:28:08;100922.47;;;18.66;63.43
32081;BME280;18593;51.426;7.030;2023-09-07T04:30:38;100927.06;;;18.65;63.60
32081;BME280;18593;51.426;7.030;2023-09-07T04:33:06;100932.22;;;18.67;63.61
32081;BME280;18593;51.426;7.030;2023-09-07T04:35:35;100927.06;;;18.65;63.62
32081;BME280;18593;51.426;7.030;2023-09-07T04:38:04;100931.06;;;18.63;63.72
32081;BME280;18593;51.426;7.030;2023-09-07T04:40:31;100932.09;;;18.57;63.98
32081;BME280;18593;51.426;7.030;2023-09-07T04:42:59;100930.47;;;18.56;64.12
32081;BME280;18593;51.426;7.030;2023-09-07T04:45:26;100935.88;;;18.56;64.34
32081;BME280;18593;51.426;7.030;2023-09-07T04:47:53;100928.84;;;18.55;64.17
32081;BME280;18593;51.426;7.030;2023-09-07T04:50:22;100929.88;;;18.53;63.98
32081;BME280;18593;51.426;7.030;2023-09-07T04:52:49;100925.31;;;18.54;63.62
32081;BME280;18593;51.426;7.030;2023-09-07T04:55:17;100929.88;;;18.53;63.72
32081;BME280;18593;51.426;7.030;2023-09-07T04:57:44;100932.59;;;18.53;63.67
32081;BME280;18593;51.426;7.030;2023-09-07T05:00:12;100928.25;;;18.52;63.77
32081;BME280;18593;51.426;7.030;2023-09-07T05:02:40;100922.53;;;18.49;63.51
32081;BME280;18593;51.426;7.030;2023-09-07T05:05:09;100929.03;;;18.48;63.57
32081;BME280;18593;51.426;7.030;2023-09-07T05:07:37;100931.72;;;18.48;63.50
32081;BME280;18593;51.426;7.030;2023-09-07T05:10:06;100934.94;;;18.45;63.64
32081;BME280;18593;51.426;7.030;2023-09-07T05:12:35;100938.47;;;18.45;63.90
32081;BME280;18593;51.426;7.030;2023-09-07T05:15:03;100934.09;;;18.44;63.69
32081;BME280;18593;51.426;7.030;2023-09-07T05:17:32;100934.09;;;18.44;63.96
32081;BME280;18593;51.426;7.030;2023-09-07T05:19:59;100929.78;;;18.43;64.16
32081;BME280;18593;51.426;7.030;2023-09-07T05:22:26;100934.09;;;18.44;64.07
32081;BME280;18593;51.426;7.030;2023-09-07T05:24:56;100931.97;;;18.46;63.90
32081;BME280;18593;51.426;7.030;2023-09-07T05:27:24;100933.59;;;18.47;64.19
32081;BME280;18593;51.426;7.030;2023-09-07T05:29:51;100933.13;;;18.50;64.05
32081;BME280;18593;51.426;7.030;2023-09-07T05:32:18;100942.84;;;18.51;64.44
32081;BME280;18593;51.426;7.030;2023-09-07T05:34:45;100940.97;;;18.52;64.77
32081;BME280;18593;51.426;7.030;2023-09-07T05:37:12;100943.41;;;18.53;64.55
32081;BME280;18593;51.426;7.030;2023-09-07T05:39:40;100947.50;;;18.56;65.13
32081;BME280;18593;51.426;7.030;2023-09-07T05:42:08;100950.50;;;18.60;65.28
32081;BME280;18593;51.426;7.030;2023-09-07T05:44:36;100948.38;;;18.62;65.26
32081;BME280;18593;51.426;7.030;2023-09-07T05:47:04;100945.97;;;18.65;65.66
32081;BME280;18593;51.426;7.030;2023-09-07T05:49:34;100956.28;;;18.68;66.87
32081;BME280;18593;51.426;7.030;2023-09-07T05:52:01;100956.34;;;18.73;67.08
32081;BME280;18593;51.426;7.030;2023-09-07T05:54:29;100956.63;;;18.72;67.35
32081;BME280;18593;51.426;7.030;2023-09-07T05:56:56;100952.88;;;18.78;66.83
32081;BME280;18593;51.426;7.030;2023-09-07T05:59:24;100949.44;;;18.83;66.74
32081;BME280;18593;51.426;7.030;2023-09-07T06:01:52;100961.38;;;18.87;66.74
32081;BME280;18593;51.426;7.030;2023-09-07T06:04:19;100957.34;;;18.89;67.19
32081;BME280;18593;51.426;7.030;2023-09-07T06:06:47;100947.63;;;18.93;67.19
32081;BME280;18593;51.426;7.030;2023-09-07T06:09:14;100956.34;;;18.95;67.44
32081;BME280;18593;51.426;7.030;2023-09-07T06:11:41;100952.28;;;18.98;67.31
32081;BME280;18593;51.426;7.030;2023-09-07T06:14:09;100957.75;;;19.03;67.56
32081;BME280;18593;51.426;7.030;2023-09-07T06:16:39;100954.81;;;19.04;67.89
32081;BME280;18593;51.426;7.030;2023-09-07T06:19:06;100951.03;;;19.06;67.57
32081;BME280;18593;51.426;7.030;2023-09-07T06:21:33;100952.97;;;19.10;67.28
32081;BME280;18593;51.426;7.030;2023-09-07T06:24:01;100951.38;;;19.14;67.67
32081;BME280;18593;51.426;7.030;2023-09-07T06:26:30;100960.34;;;19.20;68.20
32081;BME280;18593;51.426;7.030;2023-09-07T06:29:09;100958.25;;;19.27;67.96
32081;BME280;18593;51.426;7.030;2023-09-07T06:31:41;100961.00;;;19.32;68.30
32081;BME280;18593;51.426;7.030;2023-09-07T06:34:08;100955.13;;;19.40;68.00
32081;BME280;18593;51.426;7.030;2023-09-07T06:36:36;100957.59;;;19.47;67.83
32081;BME280;18593;51.426;7.030;2023-09-07T06:39:04;100961.72;;;19.54;66.95
32081;BME280;18593;51.426;7.030;2023-09-07T06:41:32;100966.13;;;19.61;67.21
32081;BME280;18593;51.426;7.030;2023-09-07T06:44:00;100979.72;;;19.71;66.62
32081;BME280;18593;51.426;7.030;2023-09-07T06:46:29;100975.44;;;19.75;66.71
32081;BME280;18593;51.426;7.030;2023-09-07T06:48:58;100978.47;;;19.84;65.73
32081;BME280;18593;51.426;7.030;2023-09-07T06:51:25;100977.44;;;19.90;65.63
32081;BME280;18593;51.426;7.030;2023-09-07T06:53:53;100974.22;;;19.93;65.26
32081;BME280;18593;51.426;7.030;2023-09-07T06:56:20;100974.56;;;20.01;65.11
32081;BME280;18593;51.426;7.030;2023-09-07T06:58:48;100975.38;;;20.07;64.81
32081;BME280;18593;51.426;7.030;2023-09-07T07:01:16;100973.78;;;20.11;65.37
32081;BME280;18593;51.426;7.030;2023-09-07T07:03:43;100983.03;;;20.20;65.01
32081;BME280;18593;51.426;7.030;2023-09-07T07:06:12;100980.09;;;20.27;64.66
32081;BME280;18593;51.426;7.030;2023-09-07T07:08:40;100984.19;;;20.35;64.46
32081;BME280;18593;51.426;7.030;2023-09-07T07:11:08;100983.41;;;20.39;63.74
32081;BME280;18593;51.426;7.030;2023-09-07T07:13:35;100983.41;;;20.44;63.56
32081;BME280;18593;51.426;7.030;2023-09-07T07:16:04;100986.19;;;20.49;64.65
32081;BME280;18593;51.426;7.030;2023-09-07T07:18:32;100982.16;;;20.57;64.41
32081;BME280;18593;51.426;7.030;2023-09-07T07:20:59;100987.91;;;20.66;64.49
32081;BME280;18593;51.426;7.030;2023-09-07T07:23:28;100989.53;;;20.72;63.72
32081;BME280;18593;51.426;7.030;2023-09-07T07:25:56;100980.31;;;20.78;63.15
32081;BME280;18593;51.426;7.030;2023-09-07T07:28:24;100986.34;;;20.85;64.01
32081;BME280;18593;51.426;7.030;2023-09-07T07:30:52;100983.63;;;20.90;64.03
32081;BME280;18593;51.426;7.030;2023-09-07T07:33:21;100980.38;;;20.98;64.13
32081;BME280;18593;51.426;7.030;2023-09-07T07:35:51;100986.09;;;21.07;63.91
32081;BME280;18593;51.426;7.030;2023-09-07T07:38:19;100978.78;;;21.13;63.63
32081;BME280;18593;51.426;7.030;2023-09-07T07:40:48;100977.44;;;21.20;62.86
32081;BME280;18593;51.426;7.030;2023-09-07T07:43:16;100974.47;;;21.27;62.66
32081;BME280;18593;51.426;7.030;2023-09-07T07:45:44;100983.19;;;21.34;63.63
32081;BME280;18593;51.426;7.030;2023-09-07T07:48:11;100980.47;;;21.39;62.94
32081;BME280;18593;51.426;7.030;2023-09-07T07:50:41;100983.19;;;21.49;62.40
32081;BME280;18593;51.426;7.030;2023-09-07T07:53:12;100981.84;;;21.57;62.27
32081;BME280;18593;51.426;7.030;2023-09-07T07:55:41;100970.44;;;21.65;61.53
32081;BME280;18593;51.426;7.030;2023-09-07T07:58:14;100967.16;;;21.73;62.31
32081;BME280;18593;51.426;7.030;2023-09-07T08:00:42;100977.19;;;21.83;63.06
32081;BME280;18593;51.426;7.030;2023-09-07T08:03:14;100978.28;;;21.87;63.42
32081;BME280;18593;51.426;7.030;2023-09-07T08:05:41;100979.38;;;21.96;63.14
32081;BME280;18593;51.426;7.030;2023-09-07T08:08:09;100974.97;;;22.05;62.74
32081;BME280;18593;51.426;7.030;2023-09-07T08:10:37;100976.88;;;22.15;62.00
32081;BME280;18593;51.426;7.030;2023-09-07T08:13:06;100972.78;;;22.23;63.25
32081;BME280;18593;51.426;7.030;2023-09-07T08:15:35;100974.16;;;22.30;61.21
32081;BME280;18593;51.426;7.030;2023-09-07T08:18:05;100976.56;;;22.37;61.28
32081;BME280;18593;51.426;7.030;2023-09-07T08:20:33;100973.53;;;22.44;61.29
32081;BME280;18593;51.426;7.030;2023-09-07T08:23:01;100974.31;;;22.49;60.07
32081;BME280;18593;51.426;7.030;2023-09-07T08:25:33;100972.66;;;22.53;60.08
32081;BME280;18593;51.426;7.030;2023-09-07T08:28:00;100968.03;;;22.59;60.10
32081;BME280;18593;51.426;7.030;2023-09-07T08:30:32;100963.06;;;22.71;59.61
32081;BME280;18593;51.426;7.030;2023-09-07T08:33:01;100969.84;;;22.74;60.95
32081;BME280;18593;51.426;7.030;2023-09-07T08:35:31;100962.50;;;22.79;60.68
32081;BME280;18593;51.426;7.030;2023-09-07T08:38:01;100961.88;;;22.87;61.69
32081;BME280;18593;51.426;7.030;2023-09-07T08:40:31;100962.91;;;23.02;61.43
32081;BME280;18593;51.426;7.030;2023-09-07T08:43:04;100959.59;;;23.10;60.63
32081;BME280;18593;51.426;7.030;2023-09-07T08:45:32;100961.47;;;23.15;58.85
32081;BME280;18593;51.426;7.030;2023-09-07T08:48:08;100954.41;;;23.13;57.83
32081;BME280;18593;51.426;7.030;2023-09-07T08:50:38;100952.72;;;23.18;58.41
32081;BME280;18593;51.426;7.030;2023-09-07T08:53:08;100955.41;;;23.23;57.54
32081;BME280;18593;51.426;7.030;2023-09-07T08:55:36;100950.13;;;23.36;57.59
32081;BME280;18593;51.426;7.030;2023-09-07T08:58:03;100952.72;;;23.52;57.83
32081;BME280;18593;51.426;7.030;2023-09-07T09:00:31;100945.84;;;23.64;57.10
32081;BME280;18593;51.426;7.030;2023-09-07T09:02:59;100951.53;;;23.68;57.36
32081;BME280;18593;51.426;7.030;2023-09-07T09:05:29;100947.91;;;23.78;54.79
32081;BME280;18593;51.426;7.030;2023-09-07T09:08:04;100947.38;;;23.76;54.62
32081;BME280;18593;51.426;7.030;2023-09-07T09:10:31;100946.25;;;23.82;55.07
32081;BME280;18593;51.426;7.030;2023-09-07T09:12:59;100949.47;;;23.84;52.93
32081;BME280;18593;51.426;7.030;2023-09-07T09:15:26;100953.31;;;23.83;51.95
32081;BME280;18593;51.426;7.030;2023-09-07T09:17:54;100943.50;;;23.82;53.22
32081;BME280;18593;51.426;7.030;2023-09-07T09:20:23;100954.34;;;23.87;51.95
32081;BME280;18593;51.426;7.030;2023-09-07T09:22:54;100947.25;;;23.86;51.96
32081;BME280;18593;51.426;7.030;2023-09-07T09:25:22;100939.63;;;23.88;52.42
32081;BME280;18593;51.426;7.030;2023-09-07T09:27:49;100941.50;;;23.93;51.51
32081;BME280;18593;51.426;7.030;2023-09-07T09:30:17;100945.59;;;23.90;50.84
32081;BME280;18593;51.426;7.030;2023-09-07T09:32:47;100937.91;;;23.97;51.80
32081;BME280;18593;51.426;7.030;2023-09-07T09:35:16;100944.91;;;24.03;52.45
32081;BME280;18593;51.426;7.030;2023-09-07T09:37:45;100936.72;;;24.03;51.35
32081;BME280;18593;51.426;7.030;2023-09-07T09:40:15;100934.00;;;24.03;52.27
32081;BME280;18593;51.426;7.030;2023-09-07T09:42:44;100932.91;;;24.04;51.31
32081;BME280;18593;51.426;7.030;2023-09-07T09:45:12;100938.09;;;24.01;51.12
32081;BME280;18593;51.426;7.030;2023-09-07T09:47:41;100932.38;;;24.02;51.88
32081;BME280;18593;51.426;7.030;2023-09-07T09:50:10;100930.47;;;24.03;50.60
32081;BME280;18593;51.426;7.030;2023-09-07T09:52:38;100926.88;;;24.07;51.14
32081;BME280;18593;51.426;7.030;2023-09-07T09:55:07;100927.13;;;24.11;51.06
32081;BME280;18593;51.426;7.030;2023-09-07T09:57:40;100926.81;;;24.12;52.02
32081;BME280;18593;51.426;7.030;2023-09-07T10:00:09;100926.19;;;24.21;51.97
32081;BME280;18593;51.426;7.030;2023-09-07T10:02:54;100917.88;;;24.31;51.85
32081;BME280;18593;51.426;7.030;2023-09-07T10:05:23;100920.00;;;24.34;51.60
32081;BME280;18593;51.426;7.030;2023-09-07T10:07:51;100914.56;;;24.34;50.86
32081;BME280;18593;51.426;7.030;2023-09-07T10:10:19;100919.19;;;24.33;50.56
32081;BME280;18593;51.426;7.030;2023-09-07T10:12:53;100907.13;;;24.39;52.00
32081;BME280;18593;51.426;7.030;2023-09-07T10:15:22;100913.41;;;24.40;51.57
32081;BME280;18593;51.426;7.030;2023-09-07T10:17:50;100917.78;;;24.41;50.65
32081;BME280;18593;51.426;7.030;2023-09-07T10:20:19;100911.28;;;24.37;51.22
32081;BME280;18593;51.426;7.030;2023-09-07T10:22:50;100906.63;;;24.37;50.37
32081;BME280;18593;51.426;7.030;2023-09-07T10:25:22;100896.47;;;24.43;51.30
32081;BME280;18593;51.426;7.030;2023-09-07T10:27:50;100906.13;;;24.54;52.38
32081;BME280;18593;51.426;7.030;2023-09-07T10:30:19;100911.31;;;24.56;51.91
32081;BME280;18593;51.426;7.030;2023-09-07T10:32:49;100904.66;;;24.62;52.52
32081;BME280;18593;51.426;7.030;2023-09-07T10:35:19;100906.50;;;24.66;50.25
32081;BME280;18593;51.426;7.030;2023-09-07T10:37:48;100890.56;;;24.74;51.42
32081;BME280;18593;51.426;7.030;2023-09-07T10:40:22;100898.59;;;24.84;52.50
32081;BME280;18593;51.426;7.030;2023-09-07T10:43:00;100892.78;;;24.90;49.49
32081;BME280;18593;51.426;7.030;2023-09-07T10:45:29;100883.72;;;24.95;49.75
32081;BME280;18593;51.426;7.030;2023-09-07T10:47:56;100885.31;;;24.96;49.54
32081;BME280;18593;51.426;7.030;2023-09-07T10:50:23;100885.16;;;25.06;50.31
32081;BME280;18593;51.426;7.030;2023-09-07T10:52:51;100881.06;;;25.09;48.18
32081;BME280;18593;51.426;7.030;2023-09-07T10:55:19;100880.81;;;25.05;47.47
32081;BME280;18593;51.426;7.030;2023-09-07T10:57:47;100877.56;;;25.03;47.32
32081;BME280;18593;51.426;7.030;2023-09-07T11:00:16;100881.06;;;25.09;47.98
32081;BME280;18593;51.426;7.030;2023-09-07T11:02:45;100875.78;;;25.12;49.02
32081;BME280;18593;51.426;7.030;2023-09-07T11:05:12;100872.09;;;25.22;49.28
32081;BME280;18593;51.426;7.030;2023-09-07T11:07:39;100881.09;;;25.23;47.79
32081;BME280;18593;51.426;7.030;2023-09-07T11:10:10;100874.53;;;25.24;47.77
32081;BME280;18593;51.426;7.030;2023-09-07T11:12:38;100868.53;;;25.22;47.46
32081;BME280;18593;51.426;7.030;2023-09-07T11:15:09;100869.34;;;25.22;46.06
32081;BME280;18593;51.426;7.030;2023-09-07T11:17:37;100874.00;;;25.22;46.54
32081;BME280;18593;51.426;7.030;2023-09-07T11:20:09;100863.41;;;25.20;46.14
32081;BME280;18593;51.426;7.030;2023-09-07T11:22:36;100862.88;;;25.18;45.84
32081;BME280;18593;51.426;7.030;2023-09-07T11:25:06;100863.69;;;25.19;45.61
32081;BME280;18593;51.426;7.030;2023-09-07T11:27:34;100861.38;;;25.26;46.66
32081;BME280;18593;51.426;7.030;2023-09-07T11:30:01;100857.34;;;25.23;45.18
32081;BME280;18593;51.426;7.030;2023-09-07T11:32:34;100855.41;;;25.24;45.51
32081;BME280;18593;51.426;7.030;2023-09-07T11:35:02;100857.53;;;25.27;45.50
32081;BME280;18593;51.426;7.030;2023-09-07T11:37:34;100862.09;;;25.31;45.76
32081;BME280;18593;51.426;7.030;2023-09-07T11:40:02;100857.44;;;25.32;45.39
32081;BME280;18593;51.426;7.030;2023-09-07T11:42:37;100852.19;;;25.35;44.85
32081;BME280;18593;51.426;7.030;2023-09-07T11:45:07;100854.75;;;25.46;45.05
32081;BME280;18593;51.426;7.030;2023-09-07T11:47:35;100847.75;;;25.39;46.36
32081;BME280;18593;51.426;7.030;2023-09-07T11:50:05;100851.50;;;25.43;46.48
32081;BME280;18593;51.426;7.030;2023-09-07T11:52:34;100844.34;;;25.48;46.30
32081;BME280;18593;51.426;7.030;2023-09-07T11:55:01;100839.38;;;25.50;46.18
32081;BME280;18593;51.426;7.030;2023-09-07T11:57:29;100838.56;;;25.49;46.24
32081;BME280;18593;51.426;7.030;2023-09-07T11:59:56;100838.88;;;25.48;45.84
32081;BME280;18593;51.426;7.030;2023-09-07T12:02:28;100843.72;;;25.51;46.01
32081;BME280;18593;51.426;7.030;2023-09-07T12:04:56;100844.16;;;25.58;46.50
32081;BME280;18593;51.426;7.030;2023-09-07T12:07:23;100848.81;;;25.57;44.89
32081;BME280;18593;51.426;7.030;2023-09-07T12:09:52;100840.88;;;25.56;44.72
32081;BME280;18593;51.426;7.030;2023-09-07T12:12:22;100838.47;;;25.54;45.65
32081;BME280;18593;51.426;7.030;2023-09-07T12:14:49;100835.72;;;25.54;45.79
32081;BME280;18593;51.426;7.030;2023-09-07T12:17:18;100841.69;;;25.56;44.52
32081;BME280;18593;51.426;7.030;2023-09-07T12:19:45;100842.22;;;25.58;45.80
32081;BME280;18593;51.426;7.030;2023-09-07T12:22:13;100825.72;;;25.63;45.97
32081;BME280;18593;51.426;7.030;2023-09-07T12:24:40;100829.75;;;25.66;46.31
32081;BME280;18593;51.426;7.030;2023-09-07T12:27:09;100821.78;;;25.69;46.33
32081;BME280;18593;51.426;7.030;2023-09-07T12:29:36;100819.53;;;25.72;46.93
32081;BME280;18593;51.426;7.030;2023-09-07T12:32:05;100815.81;;;25.81;47.41
32081;BME280;18593;51.426;7.030;2023-09-07T12:34:32;100818.25;;;25.83;47.81
32081;BME280;18593;51.426;7.030;2023-09-07T12:36:59;100820.09;;;25.87;47.51
32081;BME280;18593;51.426;7.030;2023-09-07T12:39:26;100815.00;;;25.81;46.82
32081;BME280;18593;51.426;7.030;2023-09-07T12:41:54;100816.03;;;25.85;46.69
32081;BME280;18593;51.426;7.030;2023-09-07T12:44:22;100812.97;;;25.86;46.09
32081;BME280;18593;51.426;7.030;2023-09-07T12:46:49;100813.19;;;25.90;46.10
32081;BME280;18593;51.426;7.030;2023-09-07T12:49:17;100810.66;;;25.93;46.50
32081;BME280;18593;51.426;7.030;2023-09-07T12:51:45;100813.06;;;25.95;45.94
32081;BME280;18593;51.426;7.030;2023-09-07T12:54:13;100814.78;;;25.91;46.74
32081;BME280;18593;51.426;7.030;2023-09-07T12:56:40;100801.66;;;25.93;45.96